UNGO2: Muddy Boggy, Unger, OK

                                SHEF ID:       UNGO2     Muddy Boggy Creek near Unger, OK
STATION TYPE:
Regulating: Stage = 39.00, Flow = 17600

PRECIP STAGE STAGE(2) RIV-FLOW BAT-LOAD
in ft ft cfs volt
Ccp-Rev Ccp-Rev Ccp-Rev Ccp-Rev Ccp-Rev
(America/Chicago)
02/20 00:00 0.00 11.69 ---- 577 12.89
02/20 01:00 0.00 11.66 ---- 571 12.89
02/20 02:00 0.00 11.61 ---- 562 12.81
02/20 03:00 0.00 11.57 ---- 554 12.81
02/20 04:00 0.00 11.54 ---- 548 12.81
02/20 05:00 0.00 11.49 ---- 538 12.81
02/20 06:00 0.00 11.45 ---- 531 12.73
02/20 07:00 0.00 11.43 ---- 527 12.73
02/20 08:00 0.00 11.39 ---- 519 12.73
02/20 09:00 0.00 11.36 ---- 513 12.89
02/20 10:00 0.00 11.33 ---- 507 13.13
02/20 11:00 0.00 11.29 ---- 499 13.44
02/20 12:00 0.00 11.26 ---- 495 13.37
02/20 13:00 0.00 11.23 ---- 489 13.37
02/20 14:00 0.00 11.21 ---- 485 13.29
02/20 15:00 0.00 11.18 ---- 479 13.29
02/20 16:00 0.00 11.15 ---- 473 13.21
02/20 17:00 0.00 11.11 ---- 466 13.21
02/20 18:00 0.00 11.10 ---- 464 13.05
02/20 19:00 0.00 11.06 ---- 458 13.05
02/20 20:00 0.00 11.04 ---- 454 12.97
02/20 21:00 0.00 11.01 ---- 448 12.97
02/20 22:00 0.00 10.99 ---- 445 12.97
02/20 23:00 0.00 10.96 ---- 439 12.89
Data processed at Sat 21Feb2026 05:47 GMT

NOTICE: If you are parsing this page

Please convert to using our Data API. Starting early 2026 we will be migrating to: https://water.usace.army.mil with modern pages rendered in JavaScript. When this migration completes you will no longer be able to scrape this page! CWMSDataAPI (CDA)

Timeseries IDs (TSIDs)

TSIDs used from left to right in the data table
UNGE.Precip-Inc.Total.1Hour.1Hour.Ccp-Rev
UNGE.Stage.Inst.1Hour.0.Ccp-Rev
UNGE.Stage-Alt.Inst.1Hour.0.Ccp-Rev
UNGE.Flow.Inst.1Hour.0.Ccp-Rev
UNGE.Volt-Battery Load.Inst.1Hour.0.Ccp-Rev

                            

All information presented herein is the property of the government of the United States of America and may be revised or deleted at any time without prior notice. Dissemination of this information without the expressed written consent of the Public Affairs Office, Tulsa District U.S. Army Corps of Engineers is strictly prohibited. These data are gathered electronically and, as presented, have NOT undergone any form of quality control. These data are NOT guaranteed to be valid or correct.